Time;durP1;ratioP1;P1;durP2;ratioP2;P2;SDS_P1;SDS_P2;PMS_P1;PMS_P2;Temp;Humidity;BMP_temperature;BMP_pressure;BME280_temperature;BME280_humidity;BME280_pressure;Samples;Min_cycle;Max_cycle;Signal;HPM_P1;HPM_P2
2023/05/10 00:00:04;;;;;;;5.00;4.50;;;;;;;9.63;85.34;93687.41;515926;28;781;-57
2023/05/10 00:00:22;;;;;;;5.43;4.68;;;;;;;9.64;85.10;93688.13;515813;28;941;-56
2023/05/10 00:00:37;;;;;;;4.95;4.30;;;;;;;9.65;85.20;93684.09;515771;28;1613;-55
2023/05/10 00:00:53;;;;;;;4.28;3.88;;;;;;;9.66;84.97;93682.81;515731;28;907;-57
2023/05/10 00:01:08;;;;;;;4.60;3.70;;;;;;;9.66;85.01;93680.78;515805;28;882;-56
2023/05/10 00:01:23;;;;;;;4.68;3.90;;;;;;;9.67;84.96;93678.78;515819;28;876;-56
2023/05/10 00:01:39;;;;;;;7.10;3.90;;;;;;;9.65;85.03;93686.84;515788;28;876;-55
2023/05/10 00:01:54;;;;;;;6.47;3.47;;;;;;;9.64;84.77;93686.09;515823;28;923;-56
2023/05/10 00:02:10;;;;;;;3.83;3.30;;;;;;;9.65;84.42;93684.09;515796;28;774;-56
2023/05/10 00:02:25;;;;;;;3.93;3.53;;;;;;;9.66;84.48;93682.81;515871;28;855;-56
2023/05/10 00:02:40;;;;;;;4.20;3.50;;;;;;;9.65;84.19;93686.84;515840;28;769;-56
2023/05/10 00:02:56;;;;;;;5.13;3.40;;;;;;;9.65;84.31;93681.34;515787;28;864;-55
2023/05/10 00:03:11;;;;;;;4.80;3.80;;;;;;;9.65;84.18;93684.84;515859;28;819;-56
2023/05/10 00:03:27;;;;;;;5.57;3.90;;;;;;;9.59;83.99;93681.47;515877;28;791;-56
2023/05/10 00:03:42;;;;;;;5.03;3.73;;;;;;;9.57;84.22;93683.28;515863;28;795;-55
2023/05/10 00:03:57;;;;;;;4.60;3.87;;;;;;;9.55;84.27;93680.31;515822;28;1217;-56
2023/05/10 00:04:13;;;;;;;4.32;3.67;;;;;;;9.55;84.23;93680.31;515851;28;924;-56
2023/05/10 00:04:28;;;;;;;4.73;3.37;;;;;;;9.55;84.71;93686.56;515780;28;950;-55
2023/05/10 00:04:43;;;;;;;4.78;3.65;;;;;;;9.54;84.86;93682.34;515828;28;871;-56
2023/05/10 00:04:59;;;;;;;4.50;3.77;;;;;;;9.57;84.81;93681.25;515706;28;857;-56
2023/05/10 00:05:14;;;;;;;4.73;3.73;;;;;;;9.59;84.81;93684.22;515892;28;809;-56
2023/05/10 00:05:31;;;;;;;4.63;3.80;;;;;;;9.48;84.80;93659.69;515821;28;857;-55
2023/05/10 00:05:46;;;;;;;4.57;3.85;;;;;;;9.62;84.75;93683.16;515904;28;864;-56
2023/05/10 00:06:01;;;;;;;4.80;3.83;;;;;;;9.52;84.84;93665.59;515826;28;854;-55
2023/05/10 00:06:17;;;;;;;6.35;3.88;;;;;;;9.66;84.85;93683.53;515793;28;1011;-56
2023/05/10 00:06:33;;;;;;;6.93;3.78;;;;;;;9.71;84.73;93679.19;515817;28;1159;-56
2023/05/10 00:06:48;;;;;;;7.53;3.90;;;;;;;9.70;84.50;93683.22;515751;28;831;-56
2023/05/10 00:07:03;;;;;;;6.77;4.00;;;;;;;9.74;84.42;93686.38;515891;28;882;-56
2023/05/10 00:07:19;;;;;;;4.25;3.75;;;;;;;9.74;84.58;93683.63;515770;28;826;-55
2023/05/10 00:07:34;;;;;;;4.20;3.80;;;;;;;9.77;84.67;93688.06;515817;28;872;-55
2023/05/10 00:07:50;;;;;;;4.20;3.70;;;;;;;9.79;84.40;93685.50;515844;28;849;-55
2023/05/10 00:08:05;;;;;;;4.80;3.80;;;;;;;9.78;84.47;93681.28;515821;28;885;-55
2023/05/10 00:08:20;;;;;;;6.07;4.00;;;;;;;9.78;84.21;93689.53;515766;28;991;-56
2023/05/10 00:08:36;;;;;;;6.07;3.88;;;;;;;9.76;84.29;93681.06;515896;28;878;-56
2023/05/10 00:08:51;;;;;;;5.33;3.80;;;;;;;9.78;84.24;93686.78;515791;28;833;-56
2023/05/10 00:09:06;;;;;;;4.80;3.43;;;;;;;9.75;84.11;93683.09;515832;28;932;-56
2023/05/10 00:09:22;;;;;;;3.70;3.13;;;;;;;9.72;84.07;93683.44;515809;28;881;-54
2023/05/10 00:09:37;;;;;;;3.33;2.93;;;;;;;9.74;83.93;93683.63;515749;28;1008;-54
2023/05/10 00:09:53;;;;;;;3.03;2.78;;;;;;;9.68;83.55;93681.00;515897;28;773;-55
2023/05/10 00:10:08;;;;;;;2.97;2.67;;;;;;;9.66;83.43;93682.81;515814;28;771;-55
2023/05/10 00:10:24;;;;;;;3.15;2.85;;;;;;;9.66;83.23;93683.53;515761;28;793;-56
2023/05/10 00:10:40;;;;;;;3.10;2.80;;;;;;;9.66;83.38;93682.81;515737;28;1095;-55
2023/05/10 00:10:56;;;;;;;3.35;3.05;;;;;;;9.69;83.30;93682.50;515791;28;995;-56
2023/05/10 00:11:11;;;;;;;3.33;3.03;;;;;;;9.71;83.30;93679.19;515849;28;817;-55
2023/05/10 00:11:26;;;;;;;3.00;2.70;;;;;;;9.71;83.04;93687.44;515895;28;765;-56
2023/05/10 00:11:42;;;;;;;3.03;2.80;;;;;;;9.73;83.00;93679.38;515802;28;799;-57
2023/05/10 00:11:58;;;;;;;3.27;2.97;;;;;;;9.75;83.05;93683.09;515854;28;782;-56
2023/05/10 00:12:15;;;;;;;4.03;3.53;;;;;;;9.75;83.14;93682.34;515913;28;817;-57
2023/05/10 00:12:30;;;;;;;4.07;3.67;;;;;;;9.72;83.44;93683.44;515790;28;1047;-57
2023/05/10 00:12:46;;;;;;;4.30;3.50;;;;;;;9.69;83.60;93674.22;515794;28;766;-57
2023/05/10 00:13:01;;;;;;;4.00;3.27;;;;;;;9.70;83.64;93674.97;515705;28;1990;-56
2023/05/10 00:13:17;;;;;;;3.53;3.20;;;;;;;9.74;83.70;93681.63;515793;28;878;-57
2023/05/10 00:13:32;;;;;;;4.03;3.50;;;;;;;9.76;83.74;93678.31;515844;28;818;-57
2023/05/10 00:13:47;;;;;;;4.83;3.33;;;;;;;9.69;83.90;93676.97;515741;28;1594;-56
2023/05/10 00:14:03;;;;;;;4.23;3.03;;;;;;;9.66;84.54;93683.53;515839;28;881;-56
2023/05/10 00:14:18;;;;;;;3.15;2.88;;;;;;;9.67;84.63;93681.53;515840;28;852;-56
2023/05/10 00:14:34;;;;;;;3.05;2.80;;;;;;;9.68;84.73;93681.00;515858;28;787;-56
2023/05/10 00:14:49;;;;;;;3.03;2.83;;;;;;;9.68;84.28;93678.22;515705;28;1013;-55
2023/05/10 00:15:05;;;;;;;3.07;2.87;;;;;;;9.68;84.33;93680.28;515901;28;793;-56
2023/05/10 00:15:21;;;;;;;3.22;3.03;;;;;;;9.71;84.04;93681.94;515749;28;1840;-56
2023/05/10 00:15:36;;;;;;;3.60;3.30;;;;;;;9.68;84.08;93675.47;515767;28;1160;-55
2023/05/10 00:15:52;;;;;;;3.50;3.20;;;;;;;9.74;83.94;93686.38;515624;28;1246;-57
2023/05/10 00:16:07;;;;;;;3.38;3.08;;;;;;;9.77;84.08;93686.03;515768;28;873;-56
2023/05/10 00:16:23;;;;;;;3.80;3.40;;;;;;;9.76;84.02;93678.31;515866;28;762;-57
2023/05/10 00:16:38;;;;;;;7.15;3.72;;;;;;;9.79;84.01;93680.72;516209;28;1282;-56
2023/05/10 00:16:54;;;;;;;6.88;3.45;;;;;;;9.80;84.04;93679.47;517771;28;840;-55
2023/05/10 00:17:09;;;;;;;3.07;2.77;;;;;;;9.81;84.00;93683.69;517842;28;841;-56
2023/05/10 00:17:25;;;;;;;3.40;2.80;;;;;;;9.84;83.86;93681.88;517847;28;767;-57
2023/05/10 00:17:40;;;;;;;4.18;3.00;;;;;;;9.85;84.03;93680.63;517785;28;864;-57
2023/05/10 00:17:56;;;;;;;3.73;3.10;;;;;;;9.87;84.01;93678.06;517800;28;911;-56
2023/05/10 00:18:11;;;;;;;3.38;3.08;;;;;;;9.89;83.66;93675.50;517820;28;959;-56
2023/05/10 00:18:27;;;;;;;3.77;3.10;;;;;;;9.88;83.86;93679.50;517799;28;1078;-54
2023/05/10 00:18:42;;;;;;;3.90;3.00;;;;;;;9.89;83.83;93679.00;517868;28;823;-56
2023/05/10 00:18:58;;;;;;;3.30;3.00;;;;;;;9.84;83.86;93679.13;517736;28;923;-55
2023/05/10 00:19:13;;;;;;;5.00;3.25;;;;;;;9.78;83.94;93673.75;517853;28;1588;-55
2023/05/10 00:19:28;;;;;;;6.87;3.40;;;;;;;9.76;84.09;93678.31;517749;28;908;-56
2023/05/10 00:19:44;;;;;;;4.47;3.27;;;;;;;9.77;84.30;93685.28;517887;28;986;-55
2023/05/10 00:20:00;;;;;;;3.35;3.03;;;;;;;9.78;84.15;93679.25;517829;28;1010;-54
2023/05/10 00:20:15;;;;;;;3.30;2.90;;;;;;;9.80;84.29;93678.72;517931;28;907;-55
2023/05/10 00:20:31;;;;;;;3.03;2.73;;;;;;;9.80;84.10;93681.47;517831;28;844;-56
2023/05/10 00:20:46;;;;;;;2.78;2.58;;;;;;;9.82;84.11;93676.16;517787;28;1075;-55
2023/05/10 00:21:01;;;;;;;2.90;2.60;;;;;;;9.83;83.97;93683.16;517744;28;829;-56
2023/05/10 00:21:17;;;;;;;3.10;2.77;;;;;;;9.82;84.00;93682.41;517889;28;864;-56
2023/05/10 00:21:33;;;;;;;3.50;3.13;;;;;;;9.84;83.87;93687.38;517879;28;817;-55
2023/05/10 00:21:48;;;;;;;3.38;3.08;;;;;;;9.85;84.12;93686.13;517741;28;888;-56
2023/05/10 00:22:04;;;;;;;2.73;2.53;;;;;;;9.84;83.88;93679.13;517856;28;841;-55
2023/05/10 00:22:20;;;;;;;2.65;2.45;;;;;;;9.76;83.40;93681.06;517791;28;884;-57
2023/05/10 00:22:35;;;;;;;2.65;2.45;;;;;;;9.71;83.40;93673.66;517772;28;870;-56
2023/05/10 00:22:51;;;;;;;2.50;2.30;;;;;;;9.78;83.26;93681.28;517828;28;824;-56
2023/05/10 00:23:06;;;;;;;2.60;2.40;;;;;;;9.79;83.26;93685.50;517850;28;874;-56
2023/05/10 00:23:21;;;;;;;2.78;2.58;;;;;;;9.79;83.33;93683.50;517795;28;877;-54
2023/05/10 00:23:37;;;;;;;3.10;2.80;;;;;;;9.81;83.35;93677.44;517803;28;1629;-56
2023/05/10 00:23:52;;;;;;;3.20;2.90;;;;;;;9.80;83.52;93684.97;517831;28;864;-55
2023/05/10 00:24:08;;;;;;;2.93;2.73;;;;;;;9.80;83.38;93675.97;517805;28;1631;-56
2023/05/10 00:24:23;;;;;;;2.70;2.50;;;;;;;9.79;83.24;93685.50;517901;28;872;-55
2023/05/10 00:24:39;;;;;;;2.58;2.38;;;;;;;9.79;83.59;93677.22;517817;28;876;-55
2023/05/10 00:24:54;;;;;;;2.60;2.40;;;;;;;9.78;83.31;93675.75;517818;28;822;-55
2023/05/10 00:25:10;;;;;;;2.78;2.58;;;;;;;9.74;83.26;93669.84;517815;28;912;-56
2023/05/10 00:25:26;;;;;;;2.65;2.45;;;;;;;9.82;83.29;93682.41;517830;28;928;-55
2023/05/10 00:25:41;;;;;;;2.80;2.60;;;;;;;9.84;83.20;93687.38;517851;28;797;-56
2023/05/10 00:25:56;;;;;;;2.83;2.60;;;;;;;9.80;83.27;93687.72;517922;28;816;-57
2023/05/10 00:26:12;;;;;;;2.97;2.67;;;;;;;9.79;83.32;93683.50;517857;28;1093;-56
2023/05/10 00:26:27;;;;;;;3.00;2.70;;;;;;;9.78;83.26;93681.28;517824;28;949;-56
2023/05/10 00:26:43;;;;;;;2.90;2.60;;;;;;;9.81;83.20;93680.22;517809;28;813;-57
2023/05/10 00:26:58;;;;;;;3.80;2.67;;;;;;;9.81;83.37;93680.94;517735;28;875;-57
2023/05/10 00:27:13;;;;;;;3.65;2.75;;;;;;;9.82;83.26;93682.41;517870;28;868;-57
2023/05/10 00:27:29;;;;;;;2.70;2.50;;;;;;;9.75;83.33;93682.34;517789;28;827;-56
2023/05/10 00:27:44;;;;;;;2.25;2.05;;;;;;;9.76;83.12;93687.34;517792;28;887;-56
2023/05/10 00:28:01;;;;;;;2.00;1.90;;;;;;;9.61;82.71;93683.69;517782;28;867;-56
2023/05/10 00:28:16;;;;;;;1.90;1.80;;;;;;;9.59;82.48;93683.50;517661;28;876;-56
2023/05/10 00:28:31;;;;;;;2.00;1.80;;;;;;;9.58;82.58;93684.75;517678;28;824;-56
2023/05/10 00:28:47;;;;;;;2.00;1.90;;;;;;;9.55;82.57;93675.53;517634;28;787;-56
2023/05/10 00:29:02;;;;;;;2.20;2.03;;;;;;;9.56;82.75;93679.03;517660;28;813;-56
2023/05/10 00:29:18;;;;;;;2.35;2.15;;;;;;;9.57;82.86;93686.75;517589;28;899;-56
2023/05/10 00:29:33;;;;;;;2.13;2.00;;;;;;;9.58;82.68;93677.22;517717;28;839;-55
2023/05/10 00:29:49;;;;;;;3.30;2.00;;;;;;;9.59;82.56;93675.97;517641;28;856;-56
2023/05/10 00:30:05;;;;;;;2.93;1.90;;;;;;;9.61;82.68;93683.69;517685;28;886;-56
2023/05/10 00:30:20;;;;;;;2.20;2.00;;;;;;;9.25;82.61;93625.63;517756;28;922;-55
2023/05/10 00:30:36;;;;;;;2.95;2.03;;;;;;;9.65;82.55;93679.31;517888;28;907;-56
2023/05/10 00:30:51;;;;;;;3.50;2.13;;;;;;;9.67;82.63;93682.28;516204;28;1210;-54
2023/05/10 00:31:06;;;;;;;3.10;2.30;;;;;;;9.70;82.86;93677.72;515853;28;844;-56
2023/05/10 00:31:22;;;;;;;3.03;2.40;;;;;;;9.72;82.87;93686.19;515835;28;840;-56
2023/05/10 00:31:37;;;;;;;3.20;2.50;;;;;;;9.73;82.75;93684.91;515812;28;857;-56
2023/05/10 00:31:53;;;;;;;2.40;2.20;;;;;;;9.74;82.81;93684.38;515885;28;844;-55
2023/05/10 00:32:08;;;;;;;2.40;2.20;;;;;;;9.74;82.99;93680.88;515749;28;872;-56
2023/05/10 00:32:23;;;;;;;2.50;2.30;;;;;;;9.76;83.09;93681.06;515841;28;954;-55
2023/05/10 00:32:39;;;;;;;2.55;2.35;;;;;;;9.78;83.15;93678.53;515758;28;814;-56
2023/05/10 00:32:54;;;;;;;2.50;2.30;;;;;;;9.79;83.20;93682.75;515708;28;1907;-56
2023/05/10 00:33:11;;;;;;;2.38;2.17;;;;;;;9.73;83.07;93680.13;515721;28;850;-56
2023/05/10 00:33:26;;;;;;;2.17;1.98;;;;;;;9.61;82.99;93689.19;515842;28;907;-56
2023/05/10 00:33:42;;;;;;;1.98;1.80;;;;;;;9.48;82.95;93681.72;515674;28;1709;-56
2023/05/10 00:33:57;;;;;;;1.83;1.70;;;;;;;9.47;83.19;93690.53;515753;28;1061;-54
2023/05/10 00:34:13;;;;;;;1.80;1.70;;;;;;;9.46;83.32;93683.53;515785;28;860;-55
2023/05/10 00:34:28;;;;;;;2.00;1.87;;;;;;;9.43;83.24;93679.09;515806;28;856;-55
2023/05/10 00:34:43;;;;;;;2.28;2.08;;;;;;;9.46;83.19;93684.28;515790;28;860;-55
2023/05/10 00:34:59;;;;;;;2.13;2.00;;;;;;;9.46;83.36;93687.03;515777;28;879;-55
2023/05/10 00:35:15;;;;;;;2.13;1.93;;;;;;;9.48;83.29;93681.00;515858;28;791;-55
2023/05/10 00:35:30;;;;;;;2.50;2.13;;;;;;;9.43;83.20;93668.06;515725;28;997;-56
2023/05/10 00:35:46;;;;;;;2.15;2.00;;;;;;;9.53;82.90;93688.41;515817;28;908;-55
2023/05/10 00:36:01;;;;;;;1.90;1.80;;;;;;;9.56;83.12;93690.81;515756;28;856;-55
2023/05/10 00:36:17;;;;;;;2.15;2.03;;;;;;;9.56;83.06;93687.31;515560;28;2724;-55
2023/05/10 00:36:32;;;;;;;2.20;2.00;;;;;;;9.57;82.87;93684.00;515589;28;856;-54
2023/05/10 00:36:47;;;;;;;1.93;1.83;;;;;;;9.55;82.90;93692.06;515589;28;932;-54
2023/05/10 00:37:03;;;;;;;2.65;2.00;;;;;;;9.49;83.02;93682.44;515693;28;782;-55
2023/05/10 00:37:18;;;;;;;2.50;1.93;;;;;;;9.47;82.89;93682.25;515555;28;1135;-54
2023/05/10 00:37:33;;;;;;;2.10;1.90;;;;;;;9.45;82.98;93682.78;515656;28;786;-56
2023/05/10 00:37:49;;;;;;;2.13;1.92;;;;;;;9.40;83.16;93674.66;515598;28;856;-55
2023/05/10 00:38:04;;;;;;;2.17;1.97;;;;;;;9.41;83.29;93681.66;515740;28;762;-56
2023/05/10 00:38:20;;;;;;;2.17;1.97;;;;;;;9.39;83.23;93682.19;515776;28;1022;-55
2023/05/10 00:38:35;;;;;;;2.00;1.80;;;;;;;9.36;83.60;93688.00;515851;28;868;-56
2023/05/10 00:38:51;;;;;;;1.80;1.70;;;;;;;9.35;83.59;93681.78;515699;28;892;-56
2023/05/10 00:39:06;;;;;;;1.80;1.70;;;;;;;9.35;83.65;93692.81;515852;28;1468;-55
2023/05/10 00:39:21;;;;;;;1.80;1.70;;;;;;;9.34;83.60;93679.53;515730;28;879;-56
2023/05/10 00:39:37;;;;;;;2.27;2.07;;;;;;;9.32;83.66;93682.09;515803;28;860;-55
2023/05/10 00:39:53;;;;;;;2.17;1.95;;;;;;;9.15;83.84;93682.47;515715;28;954;-56
2023/05/10 00:40:08;;;;;;;1.80;1.63;;;;;;;9.06;84.21;93682.91;515814;28;819;-55
2023/05/10 00:40:24;;;;;;;1.87;1.50;;;;;;;8.93;84.50;93678.16;515743;28;1603;-55
2023/05/10 00:40:39;;;;;;;2.03;1.83;;;;;;;8.84;85.27;93672.34;515782;28;872;-57
2023/05/10 00:40:56;;;;;;;2.40;2.20;;;;;;;8.84;85.44;93684.13;515843;28;906;-55
2023/05/10 00:41:11;;;;;;;2.20;2.00;;;;;;;8.82;85.89;93672.16;515782;28;967;-56
2023/05/10 00:41:27;;;;;;;2.03;1.90;;;;;;;8.81;86.09;93676.19;515822;28;1026;-56
2023/05/10 00:41:42;;;;;;;2.78;2.05;;;;;;;8.83;86.29;93673.63;515693;28;883;-55
2023/05/10 00:41:58;;;;;;;2.77;2.20;;;;;;;8.83;86.10;93671.63;515754;28;892;-55
2023/05/10 00:42:13;;;;;;;2.13;2.03;;;;;;;8.81;86.46;93679.69;515814;28;872;-56
2023/05/10 00:42:28;;;;;;;2.50;2.30;;;;;;;8.83;86.83;93682.66;515801;28;858;-55
2023/05/10 00:42:44;;;;;;;2.80;2.50;;;;;;;8.86;87.00;93681.56;515787;28;809;-57
2023/05/10 00:43:01;;;;;;;2.58;2.38;;;;;;;8.87;86.90;93677.56;515744;28;904;-57
2023/05/10 00:43:16;;;;;;;2.70;1.92;;;;;;;8.87;86.86;93682.31;515833;28;888;-55
2023/05/10 00:43:31;;;;;;;2.40;1.90;;;;;;;8.88;86.59;93687.28;515766;28;884;-56
2023/05/10 00:43:47;;;;;;;2.13;1.93;;;;;;;8.87;86.52;93680.31;515764;28;854;-54
2023/05/10 00:44:02;;;;;;;2.95;2.03;;;;;;;8.86;86.61;93673.31;515758;28;876;-56
2023/05/10 00:44:18;;;;;;;3.13;2.40;;;;;;;8.82;86.75;93674.91;515764;28;1147;-55
2023/05/10 00:44:33;;;;;;;2.50;2.30;;;;;;;8.85;86.88;93676.59;515766;28;1562;-55
2023/05/10 00:44:49;;;;;;;2.60;2.40;;;;;;;8.85;86.80;93674.59;515723;28;864;-55
2023/05/10 00:45:05;;;;;;;2.83;2.63;;;;;;;8.86;87.09;93673.31;515889;28;796;-57
2023/05/10 00:45:20;;;;;;;2.83;2.53;;;;;;;8.89;87.29;93677.00;515748;28;972;-56
2023/05/10 00:45:36;;;;;;;2.80;2.47;;;;;;;8.91;87.10;93675.22;515843;28;828;-57
2023/05/10 00:45:52;;;;;;;2.83;2.60;;;;;;;8.94;87.20;93676.88;515761;28;1042;-57
2023/05/10 00:46:07;;;;;;;2.97;2.63;;;;;;;8.95;87.62;93678.38;515703;28;2401;-56
2023/05/10 00:46:23;;;;;;;3.33;2.57;;;;;;;8.96;87.75;93679.13;515626;28;869;-56
2023/05/10 00:46:38;;;;;;;3.28;2.63;;;;;;;8.95;87.50;93680.38;515578;28;817;-55
2023/05/10 00:46:54;;;;;;;2.73;2.33;;;;;;;8.95;87.83;93680.38;515630;28;809;-56
2023/05/10 00:47:10;;;;;;;3.72;2.70;;;;;;;8.93;87.75;93671.91;515622;28;905;-56
2023/05/10 00:47:25;;;;;;;4.53;2.87;;;;;;;8.95;87.97;93669.38;513592;28;859;-57
2023/05/10 00:47:40;;;;;;;3.65;2.60;;;;;;;8.92;88.06;93676.69;511501;29;912;-57
2023/05/10 00:47:56;;;;;;;2.60;2.40;;;;;;;8.88;87.93;93676.28;511654;29;835;-56
2023/05/10 00:48:12;;;;;;;2.50;2.30;;;;;;;8.87;87.87;93671.31;511930;28;899;-57
2023/05/10 00:48:28;;;;;;;3.35;2.40;;;;;;;8.88;88.01;93668.00;511628;29;845;-57
2023/05/10 00:48:44;;;;;;;3.50;2.40;;;;;;;8.91;88.16;93671.72;511652;29;908;-57
2023/05/10 00:49:00;;;;;;;2.60;2.40;;;;;;;8.90;87.86;93673.72;511600;29;889;-56
2023/05/10 00:49:16;;;;;;;3.00;2.45;;;;;;;8.93;87.95;93678.16;512252;28;865;-57
2023/05/10 00:49:31;;;;;;;2.87;2.30;;;;;;;8.93;87.80;93669.91;514203;28;881;-56
2023/05/10 00:49:47;;;;;;;2.58;2.38;;;;;;;8.93;87.78;93672.66;515615;28;866;-56
2023/05/10 00:50:02;;;;;;;2.72;2.47;;;;;;;8.85;87.74;93663.59;513655;28;865;-55
2023/05/10 00:50:18;;;;;;;2.67;2.47;;;;;;;8.95;87.76;93672.88;514253;28;883;-56
2023/05/10 00:50:33;;;;;;;2.67;2.47;;;;;;;8.90;87.63;93673.00;515664;28;995;-56
2023/05/10 00:50:49;;;;;;;2.77;2.50;;;;;;;8.81;87.72;93674.19;515611;28;758;-57
2023/05/10 00:51:04;;;;;;;2.83;2.45;;;;;;;8.83;87.85;93668.88;516039;28;904;-57
2023/05/10 00:51:20;;;;;;;2.97;2.50;;;;;;;8.79;87.90;93670.47;516052;28;831;-57
2023/05/10 00:51:36;;;;;;;2.67;2.47;;;;;;;8.73;87.74;93667.81;514073;28;829;-57
2023/05/10 00:51:51;;;;;;;2.50;2.30;;;;;;;8.72;88.06;93669.09;513959;28;877;-56
2023/05/10 00:52:07;;;;;;;2.70;2.40;;;;;;;8.71;87.88;93666.88;514085;28;959;-57
2023/05/10 00:52:23;;;;;;;2.72;2.47;;;;;;;8.75;87.83;93667.31;514033;28;1082;-57
2023/05/10 00:52:39;;;;;;;2.65;2.45;;;;;;;8.77;88.09;93670.28;514460;28;924;-55
2023/05/10 00:52:54;;;;;;;2.50;2.27;;;;;;;8.82;88.04;93666.63;513954;28;1978;-56
2023/05/10 00:53:10;;;;;;;2.75;2.20;;;;;;;8.83;87.79;93666.13;514018;28;860;-57
2023/05/10 00:53:26;;;;;;;2.50;2.28;;;;;;;8.83;87.87;93666.13;514042;28;888;-57
2023/05/10 00:53:41;;;;;;;2.80;2.30;;;;;;;8.86;87.49;93670.56;512014;29;821;-57
2023/05/10 00:53:56;;;;;;;3.15;2.53;;;;;;;8.85;87.64;93660.81;510077;29;861;-57
2023/05/10 00:54:14;;;;;;;3.33;2.57;;;;;;;8.91;87.98;93664.19;510442;29;858;-57
2023/05/10 00:54:29;;;;;;;4.03;2.75;;;;;;;8.94;87.61;93671.38;511975;29;1047;-57
2023/05/10 00:54:45;;;;;;;3.92;2.95;;;;;;;8.89;87.83;93668.75;512711;28;877;-57
2023/05/10 00:55:00;;;;;;;3.97;2.90;;;;;;;8.87;87.85;93663.78;514022;28;821;-57
2023/05/10 00:55:15;;;;;;;3.80;2.75;;;;;;;8.85;88.01;93662.84;512147;28;877;-57
2023/05/10 00:55:31;;;;;;;3.30;2.80;;;;;;;8.86;88.11;93670.56;512522;28;778;-57
2023/05/10 00:55:47;;;;;;;3.10;2.80;;;;;;;8.85;88.29;93669.09;512072;28;849;-57
2023/05/10 00:56:03;;;;;;;3.97;2.77;;;;;;;8.87;88.13;93668.53;510083;28;1111;-57
2023/05/10 00:56:22;;;;;;;4.82;2.88;;;;;;;8.89;88.45;93668.75;508499;29;881;-57
2023/05/10 00:56:38;;;;;;;2.88;2.60;;;;;;;8.88;88.40;93668.00;508013;29;873;-57
2023/05/10 00:56:53;;;;;;;2.80;2.40;;;;;;;8.88;88.22;93670.03;508113;29;822;-56
2023/05/10 00:57:09;;;;;;;3.13;2.63;;;;;;;8.85;88.10;93663.59;509014;29;822;-56
2023/05/10 00:57:24;;;;;;;3.63;2.90;;;;;;;8.86;88.17;93667.06;510060;29;784;-57
2023/05/10 00:57:39;;;;;;;3.15;2.85;;;;;;;8.88;88.33;93672.78;510934;28;861;-57
2023/05/10 00:57:55;;;;;;;11.03;3.53;;;;;;;8.86;88.01;93667.81;510935;28;1132;-57
2023/05/10 00:58:12;;;;;;;10.90;3.40;;;;;;;8.81;88.16;93663.16;512971;28;790;-56
2023/05/10 00:58:28;;;;;;;2.85;2.50;;;;;;;8.75;88.32;93667.31;514075;28;927;-56
2023/05/10 00:58:43;;;;;;;3.33;2.65;;;;;;;8.73;88.37;93662.31;514525;28;967;-57
2023/05/10 00:58:59;;;;;;;3.40;2.78;;;;;;;8.72;88.39;93660.84;515972;28;1667;-57
2023/05/10 00:59:18;;;;;;;3.00;2.70;;;;;;;8.73;88.49;93662.31;516119;28;1070;-58
2023/05/10 00:59:34;;;;;;;2.90;2.70;;;;;;;8.76;88.74;93663.28;515972;28;856;-58
2023/05/10 00:59:49;;;;;;;2.80;2.60;;;;;;;8.75;88.78;93665.28;516130;28;758;-58
2023/05/10 01:00:11;;;;;;;2.97;2.70;;;;;;;8.70;88.92;93666.16;516298;28;806;-57
2023/05/10 01:00:26;;;;;;;3.10;2.80;;;;;;;8.70;89.15;93668.91;516246;28;880;-57
2023/05/10 01:00:42;;;;;;;3.07;2.87;;;;;;;8.75;89.27;93664.56;515953;28;864;-57
2023/05/10 01:00:57;;;;;;;3.00;2.70;;;;;;;8.72;89.05;93665.59;515943;28;939;-57
2023/05/10 01:01:14;;;;;;;3.00;2.75;;;;;;;8.66;88.94;93662.97;514068;28;782;-58
2023/05/10 01:01:29;;;;;;;2.85;2.65;;;;;;;8.73;89.19;93667.06;514059;28;880;-58
2023/05/10 01:01:45;;;;;;;3.13;2.83;;;;;;;8.70;89.27;93663.41;513998;28;830;-57
2023/05/10 01:02:01;;;;;;;3.20;2.90;;;;;;;8.74;89.00;93663.81;513999;28;872;-58
2023/05/10 01:02:17;;;;;;;3.00;2.80;;;;;;;8.73;89.03;93661.56;512066;29;817;-58
2023/05/10 01:02:34;;;;;;;3.20;2.90;;;;;;;8.74;89.13;93669.31;512682;28;857;-57
2023/05/10 01:02:49;;;;;;;3.25;2.95;;;;;;;8.75;89.31;93667.31;513926;28;1637;-57
2023/05/10 01:03:05;;;;;;;3.10;2.83;;;;;;;8.77;89.08;93657.22;514003;28;1509;-58
2023/05/10 01:03:20;;;;;;;2.80;2.60;;;;;;;8.79;89.08;93665.69;514004;28;857;-57
2023/05/10 01:03:36;;;;;;;2.80;2.60;;;;;;;8.78;89.21;93660.72;514784;28;881;-58
2023/05/10 01:03:52;;;;;;;3.15;2.85;;;;;;;8.70;89.16;93660.63;513950;28;699;-57
2023/05/10 01:04:08;;;;;;;4.40;3.00;;;;;;;8.68;89.34;93659.69;514602;28;922;-58
2023/05/10 01:04:25;;;;;;;3.75;2.80;;;;;;;8.66;88.99;93667.75;516091;28;899;-57
2023/05/10 01:04:40;;;;;;;2.88;2.67;;;;;;;8.65;88.94;93664.25;516008;28;817;-57
2023/05/10 01:04:56;;;;;;;3.00;2.80;;;;;;;8.64;89.00;93667.53;513975;28;823;-58
2023/05/10 01:05:11;;;;;;;3.10;2.57;;;;;;;8.64;88.73;93662.75;514061;28;798;-58
2023/05/10 01:05:27;;;;;;;3.50;2.40;;;;;;;8.62;88.68;93668.03;514037;28;1055;-57
2023/05/10 01:05:42;;;;;;;3.77;2.77;;;;;;;8.61;88.90;93661.06;514508;28;854;-57
2023/05/10 01:05:58;;;;;;;3.70;2.90;;;;;;;8.59;88.83;93660.13;515974;28;956;-57
2023/05/10 01:06:13;;;;;;;3.13;2.83;;;;;;;8.51;88.72;93659.28;516070;28;834;-57
2023/05/10 01:06:29;;;;;;;2.90;2.70;;;;;;;8.45;89.10;93648.38;516018;28;805;-58
2023/05/10 01:06:44;;;;;;;2.85;2.63;;;;;;;8.59;89.06;93665.63;516076;28;899;-57
2023/05/10 01:06:59;;;;;;;3.00;2.70;;;;;;;8.57;89.18;93660.66;516159;28;757;-56
2023/05/10 01:07:15;;;;;;;3.03;2.80;;;;;;;8.56;89.01;93664.66;516159;28;911;-58
2023/05/10 01:07:30;;;;;;;3.30;3.00;;;;;;;8.57;89.09;93668.91;516165;28;832;-58
2023/05/10 01:07:46;;;;;;;3.22;2.92;;;;;;;8.53;89.09;93663.00;516241;28;801;-58
2023/05/10 01:08:02;;;;;;;3.10;2.80;;;;;;;8.53;89.21;93667.75;516095;28;927;-58
2023/05/10 01:08:18;;;;;;;3.95;2.85;;;;;;;8.50;89.26;93653.03;516158;28;945;-57
2023/05/10 01:08:33;;;;;;;3.85;3.00;;;;;;;8.45;89.55;93666.88;516184;28;884;-58
2023/05/10 01:08:49;;;;;;;3.43;3.13;;;;;;;8.44;89.90;93663.41;516104;28;814;-59
2023/05/10 01:09:06;;;;;;;4.53;3.25;;;;;;;8.43;90.00;93664.66;516274;28;789;-58
2023/05/10 01:09:21;;;;;;;3.50;2.95;;;;;;;8.44;90.06;93665.41;516146;28;896;-58
2023/05/10 01:09:37;;;;;;;2.72;2.53;;;;;;;8.47;90.18;93665.09;515967;28;904;-57
2023/05/10 01:09:52;;;;;;;3.13;2.83;;;;;;;8.48;90.54;93663.84;514024;28;789;-58
2023/05/10 01:10:08;;;;;;;3.50;3.20;;;;;;;8.52;90.59;93669.00;512048;29;834;-58
2023/05/10 01:10:24;;;;;;;3.72;3.17;;;;;;;8.53;90.28;93662.25;509812;29;1136;-58
2023/05/10 01:10:40;;;;;;;3.93;3.47;;;;;;;8.54;90.51;93658.94;508064;29;843;-57
2023/05/10 01:10:55;;;;;;;4.10;3.70;;;;;;;8.56;90.78;93661.91;508019;29;928;-57
2023/05/10 01:11:11;;;;;;;4.33;3.93;;;;;;;8.58;90.48;93659.38;508006;28;967;-57
2023/05/10 01:11:26;;;;;;;4.25;3.85;;;;;;;8.62;90.91;93661.81;508533;29;881;-57
2023/05/10 01:11:42;;;;;;;4.40;4.00;;;;;;;8.65;90.79;93660.75;510401;29;922;-58
2023/05/10 01:11:58;;;;;;;5.53;4.13;;;;;;;8.67;90.72;93663.69;512512;28;842;-57
2023/05/10 01:12:13;;;;;;;5.07;4.05;;;;;;;8.61;91.01;93663.81;514550;28;782;-58
2023/05/10 01:12:28;;;;;;;6.10;3.90;;;;;;;8.61;91.14;93666.56;514005;28;837;-58
2023/05/10 01:12:45;;;;;;;5.77;3.77;;;;;;;8.60;91.06;93667.84;513982;28;783;-57
2023/05/10 01:13:00;;;;;;;3.90;3.60;;;;;;;8.62;91.15;93657.03;512344;28;1962;-57
2023/05/10 01:13:33;;;;;;;7.40;4.00;;;;;;;8.63;91.07;93664.03;514009;28;802;-58
2023/05/10 01:13:54;;;;;;;3.85;3.55;;;;;;;8.72;90.96;93663.59;513940;28;839;-58
2023/05/10 01:14:10;;;;;;;6.50;3.83;;;;;;;8.72;91.11;93663.59;513893;28;1099;-58
2023/05/10 01:14:26;;;;;;;7.63;3.83;;;;;;;8.74;91.27;93663.06;515458;28;874;-58
2023/05/10 01:14:41;;;;;;;6.43;3.80;;;;;;;8.76;91.19;93660.50;515955;28;891;-58
2023/05/10 01:14:57;;;;;;;6.00;3.87;;;;;;;8.66;91.06;93643.72;517355;28;790;-57
2023/05/10 01:15:14;;;;;;;3.88;3.58;;;;;;;8.72;91.06;93657.34;516005;28;927;-58
2023/05/10 01:15:30;;;;;;;4.10;3.70;;;;;;;8.69;91.18;93663.91;513906;28;857;-57
2023/05/10 01:15:46;;;;;;;4.05;3.65;;;;;;;8.67;91.02;93658.19;512030;29;822;-58
2023/05/10 01:16:02;;;;;;;3.67;3.38;;;;;;;8.67;91.07;93655.44;511764;29;1140;-58
2023/05/10 01:16:18;;;;;;;4.05;3.65;;;;;;;8.65;91.08;93661.47;511956;29;923;-59
2023/05/10 01:16:36;;;;;;;4.20;3.65;;;;;;;8.65;91.05;93655.22;512010;29;799;-58
2023/05/10 01:16:53;;;;;;;4.03;3.30;;;;;;;8.57;90.72;93663.41;511879;28;889;-58
2023/05/10 01:17:09;;;;;;;3.25;2.95;;;;;;;8.54;90.41;93666.47;513300;28;833;-57
2023/05/10 01:17:25;;;;;;;3.17;2.97;;;;;;;8.54;90.57;93653.44;515294;28;868;-58